sensor_id;sensor_type;location;lat;lon;timestamp;P1;durP1;ratioP1;P2;durP2;ratioP2
7179;SDS011;3631;42.152;24.756;2023-07-02T00:02:13;10.68;;;8.02;;
7179;SDS011;3631;42.152;24.756;2023-07-02T00:04:41;11.75;;;8.10;;
7179;SDS011;3631;42.152;24.756;2023-07-02T00:07:08;9.00;;;8.07;;
7179;SDS011;3631;42.152;24.756;2023-07-02T00:09:35;10.60;;;8.13;;
7179;SDS011;3631;42.152;24.756;2023-07-02T00:12:02;8.07;;;7.30;;
7179;SDS011;3631;42.152;24.756;2023-07-02T00:14:29;8.73;;;8.00;;
7179;SDS011;3631;42.152;24.756;2023-07-02T00:16:57;9.25;;;8.20;;
7179;SDS011;3631;42.152;24.756;2023-07-02T00:19:25;8.88;;;7.97;;
7179;SDS011;3631;42.152;24.756;2023-07-02T00:21:52;8.77;;;7.78;;
7179;SDS011;3631;42.152;24.756;2023-07-02T00:24:20;9.32;;;8.45;;
7179;SDS011;3631;42.152;24.756;2023-07-02T00:26:47;8.68;;;7.85;;
7179;SDS011;3631;42.152;24.756;2023-07-02T00:29:14;9.07;;;8.25;;
7179;SDS011;3631;42.152;24.756;2023-07-02T00:31:41;9.68;;;8.07;;
7179;SDS011;3631;42.152;24.756;2023-07-02T00:34:09;9.60;;;8.70;;
7179;SDS011;3631;42.152;24.756;2023-07-02T00:36:36;11.60;;;9.85;;
7179;SDS011;3631;42.152;24.756;2023-07-02T00:39:03;10.95;;;9.93;;
7179;SDS011;3631;42.152;24.756;2023-07-02T00:41:30;11.20;;;10.10;;
7179;SDS011;3631;42.152;24.756;2023-07-02T00:43:57;12.48;;;11.07;;
7179;SDS011;3631;42.152;24.756;2023-07-02T00:46:24;12.25;;;10.98;;
7179;SDS011;3631;42.152;24.756;2023-07-02T00:48:52;12.02;;;10.88;;
7179;SDS011;3631;42.152;24.756;2023-07-02T00:51:22;15.75;;;10.05;;
7179;SDS011;3631;42.152;24.756;2023-07-02T00:53:50;10.43;;;9.10;;
7179;SDS011;3631;42.152;24.756;2023-07-02T00:56:18;11.43;;;10.35;;
7179;SDS011;3631;42.152;24.756;2023-07-02T00:58:45;11.65;;;10.48;;
7179;SDS011;3631;42.152;24.756;2023-07-02T01:01:14;12.15;;;10.85;;
7179;SDS011;3631;42.152;24.756;2023-07-02T01:06:29;12.50;;;9.82;;
7179;SDS011;3631;42.152;24.756;2023-07-02T01:08:58;11.27;;;9.95;;
7179;SDS011;3631;42.152;24.756;2023-07-02T01:11:27;11.23;;;9.90;;
7179;SDS011;3631;42.152;24.756;2023-07-02T01:13:59;11.70;;;10.45;;
7179;SDS011;3631;42.152;24.756;2023-07-02T01:16:29;14.13;;;9.88;;
7179;SDS011;3631;42.152;24.756;2023-07-02T01:18:58;19.15;;;10.77;;
7179;SDS011;3631;42.152;24.756;2023-07-02T01:21:30;13.52;;;11.68;;
7179;SDS011;3631;42.152;24.756;2023-07-02T01:23:58;14.75;;;12.57;;
7179;SDS011;3631;42.152;24.756;2023-07-02T01:26:27;14.10;;;12.02;;
7179;SDS011;3631;42.152;24.756;2023-07-02T01:28:56;16.10;;;13.18;;
7179;SDS011;3631;42.152;24.756;2023-07-02T01:31:23;15.63;;;11.77;;
7179;SDS011;3631;42.152;24.756;2023-07-02T01:33:50;14.40;;;12.35;;
7179;SDS011;3631;42.152;24.756;2023-07-02T01:36:18;15.65;;;11.52;;
7179;SDS011;3631;42.152;24.756;2023-07-02T01:38:46;17.85;;;14.55;;
7179;SDS011;3631;42.152;24.756;2023-07-02T01:41:13;19.70;;;13.30;;
7179;SDS011;3631;42.152;24.756;2023-07-02T01:43:40;17.52;;;13.20;;
7179;SDS011;3631;42.152;24.756;2023-07-02T01:46:06;14.02;;;12.52;;
7179;SDS011;3631;42.152;24.756;2023-07-02T01:48:33;17.42;;;14.07;;
7179;SDS011;3631;42.152;24.756;2023-07-02T01:51:00;12.90;;;11.60;;
7179;SDS011;3631;42.152;24.756;2023-07-02T01:53:28;15.57;;;13.60;;
7179;SDS011;3631;42.152;24.756;2023-07-02T01:55:56;17.23;;;13.00;;
7179;SDS011;3631;42.152;24.756;2023-07-02T01:58:23;11.52;;;10.35;;
7179;SDS011;3631;42.152;24.756;2023-07-02T02:00:50;10.55;;;9.48;;
7179;SDS011;3631;42.152;24.756;2023-07-02T02:03:17;10.73;;;9.63;;
7179;SDS011;3631;42.152;24.756;2023-07-02T02:05:45;15.13;;;11.15;;
7179;SDS011;3631;42.152;24.756;2023-07-02T02:08:12;12.77;;;9.60;;
7179;SDS011;3631;42.152;24.756;2023-07-02T02:10:39;11.02;;;9.55;;
7179;SDS011;3631;42.152;24.756;2023-07-02T02:13:07;12.32;;;10.07;;
7179;SDS011;3631;42.152;24.756;2023-07-02T02:15:34;9.63;;;8.30;;
7179;SDS011;3631;42.152;24.756;2023-07-02T02:18:01;10.77;;;8.02;;
7179;SDS011;3631;42.152;24.756;2023-07-02T02:20:28;10.65;;;9.20;;
7179;SDS011;3631;42.152;24.756;2023-07-02T02:22:55;9.32;;;8.43;;
7179;SDS011;3631;42.152;24.756;2023-07-02T02:25:22;9.30;;;8.35;;
7179;SDS011;3631;42.152;24.756;2023-07-02T02:27:49;11.68;;;8.77;;
7179;SDS011;3631;42.152;24.756;2023-07-02T02:30:17;11.45;;;9.02;;
7179;SDS011;3631;42.152;24.756;2023-07-02T02:32:44;10.20;;;8.88;;
7179;SDS011;3631;42.152;24.756;2023-07-02T02:35:11;12.02;;;8.23;;
7179;SDS011;3631;42.152;24.756;2023-07-02T02:37:38;10.80;;;8.30;;
7179;SDS011;3631;42.152;24.756;2023-07-02T02:40:06;9.77;;;8.40;;
7179;SDS011;3631;42.152;24.756;2023-07-02T02:42:34;10.10;;;8.57;;
7179;SDS011;3631;42.152;24.756;2023-07-02T02:45:01;10.07;;;8.50;;
7179;SDS011;3631;42.152;24.756;2023-07-02T02:47:29;11.85;;;8.55;;
7179;SDS011;3631;42.152;24.756;2023-07-02T02:49:56;8.85;;;8.00;;
7179;SDS011;3631;42.152;24.756;2023-07-02T02:52:23;10.75;;;8.90;;
7179;SDS011;3631;42.152;24.756;2023-07-02T02:54:50;10.73;;;9.10;;
7179;SDS011;3631;42.152;24.756;2023-07-02T02:57:18;9.45;;;8.65;;
7179;SDS011;3631;42.152;24.756;2023-07-02T02:59:45;10.80;;;9.18;;
7179;SDS011;3631;42.152;24.756;2023-07-02T03:02:12;12.02;;;8.43;;
7179;SDS011;3631;42.152;24.756;2023-07-02T03:04:40;11.18;;;9.35;;
7179;SDS011;3631;42.152;24.756;2023-07-02T03:07:09;11.35;;;8.57;;
7179;SDS011;3631;42.152;24.756;2023-07-02T03:09:36;11.90;;;8.38;;
7179;SDS011;3631;42.152;24.756;2023-07-02T03:12:03;19.13;;;9.32;;
7179;SDS011;3631;42.152;24.756;2023-07-02T03:14:30;18.50;;;11.70;;
7179;SDS011;3631;42.152;24.756;2023-07-02T03:16:57;15.93;;;13.10;;
7179;SDS011;3631;42.152;24.756;2023-07-02T03:19:24;13.95;;;11.27;;
7179;SDS011;3631;42.152;24.756;2023-07-02T03:21:53;12.25;;;10.73;;
7179;SDS011;3631;42.152;24.756;2023-07-02T03:24:20;18.25;;;11.80;;
7179;SDS011;3631;42.152;24.756;2023-07-02T03:26:47;13.20;;;10.70;;
7179;SDS011;3631;42.152;24.756;2023-07-02T03:29:14;14.07;;;11.05;;
7179;SDS011;3631;42.152;24.756;2023-07-02T03:31:41;12.77;;;10.52;;
7179;SDS011;3631;42.152;24.756;2023-07-02T03:34:09;11.70;;;10.32;;
7179;SDS011;3631;42.152;24.756;2023-07-02T03:36:36;13.60;;;9.88;;
7179;SDS011;3631;42.152;24.756;2023-07-02T03:39:05;19.15;;;10.80;;
7179;SDS011;3631;42.152;24.756;2023-07-02T03:41:32;13.02;;;10.18;;
7179;SDS011;3631;42.152;24.756;2023-07-02T03:43:58;10.75;;;9.05;;
7179;SDS011;3631;42.152;24.756;2023-07-02T03:46:25;13.63;;;8.88;;
7179;SDS011;3631;42.152;24.756;2023-07-02T03:48:52;10.52;;;8.32;;
7179;SDS011;3631;42.152;24.756;2023-07-02T03:51:19;8.23;;;7.43;;
7179;SDS011;3631;42.152;24.756;2023-07-02T03:53:46;12.30;;;7.15;;
7179;SDS011;3631;42.152;24.756;2023-07-02T03:56:14;10.98;;;8.40;;
7179;SDS011;3631;42.152;24.756;2023-07-02T03:58:41;19.95;;;8.43;;
7179;SDS011;3631;42.152;24.756;2023-07-02T04:01:08;14.02;;;8.32;;
7179;SDS011;3631;42.152;24.756;2023-07-02T04:03:35;12.70;;;7.78;;
7179;SDS011;3631;42.152;24.756;2023-07-02T04:06:02;14.13;;;7.57;;
7179;SDS011;3631;42.152;24.756;2023-07-02T04:08:30;10.52;;;8.75;;
7179;SDS011;3631;42.152;24.756;2023-07-02T04:10:57;12.98;;;8.45;;
7179;SDS011;3631;42.152;24.756;2023-07-02T04:13:26;15.00;;;8.20;;
7179;SDS011;3631;42.152;24.756;2023-07-02T04:15:53;9.68;;;7.88;;
7179;SDS011;3631;42.152;24.756;2023-07-02T04:18:20;15.10;;;8.40;;
7179;SDS011;3631;42.152;24.756;2023-07-02T04:20:47;15.23;;;8.20;;
7179;SDS011;3631;42.152;24.756;2023-07-02T04:23:14;10.15;;;9.18;;
7179;SDS011;3631;42.152;24.756;2023-07-02T04:25:41;9.35;;;8.45;;
7179;SDS011;3631;42.152;24.756;2023-07-02T04:28:08;16.60;;;8.60;;
7179;SDS011;3631;42.152;24.756;2023-07-02T04:30:36;13.40;;;8.90;;
7179;SDS011;3631;42.152;24.756;2023-07-02T04:33:03;10.98;;;8.68;;
7179;SDS011;3631;42.152;24.756;2023-07-02T04:35:30;9.07;;;8.05;;
7179;SDS011;3631;42.152;24.756;2023-07-02T04:37:57;11.07;;;8.20;;
7179;SDS011;3631;42.152;24.756;2023-07-02T04:40:24;8.98;;;8.27;;
7179;SDS011;3631;42.152;24.756;2023-07-02T04:42:52;12.20;;;8.25;;
7179;SDS011;3631;42.152;24.756;2023-07-02T04:45:23;13.85;;;9.07;;
7179;SDS011;3631;42.152;24.756;2023-07-02T04:47:52;12.13;;;9.30;;
7179;SDS011;3631;42.152;24.756;2023-07-02T04:50:19;11.18;;;9.15;;
7179;SDS011;3631;42.152;24.756;2023-07-02T04:52:46;14.68;;;8.45;;
7179;SDS011;3631;42.152;24.756;2023-07-02T04:55:13;13.73;;;8.82;;
7179;SDS011;3631;42.152;24.756;2023-07-02T04:57:40;10.75;;;7.80;;
7179;SDS011;3631;42.152;24.756;2023-07-02T05:00:09;9.13;;;8.23;;
7179;SDS011;3631;42.152;24.756;2023-07-02T05:02:37;13.20;;;8.25;;
7179;SDS011;3631;42.152;24.756;2023-07-02T05:05:06;13.85;;;8.75;;
7179;SDS011;3631;42.152;24.756;2023-07-02T05:07:33;8.77;;;7.95;;
7179;SDS011;3631;42.152;24.756;2023-07-02T05:10:00;10.90;;;8.27;;
7179;SDS011;3631;42.152;24.756;2023-07-02T05:12:27;14.00;;;8.95;;
7179;SDS011;3631;42.152;24.756;2023-07-02T05:14:54;16.17;;;8.43;;
7179;SDS011;3631;42.152;24.756;2023-07-02T05:17:21;13.95;;;9.60;;
7179;SDS011;3631;42.152;24.756;2023-07-02T05:19:48;15.10;;;9.57;;
7179;SDS011;3631;42.152;24.756;2023-07-02T05:22:17;15.52;;;9.27;;
7179;SDS011;3631;42.152;24.756;2023-07-02T05:24:44;14.52;;;10.43;;
7179;SDS011;3631;42.152;24.756;2023-07-02T05:27:11;14.40;;;9.27;;
7179;SDS011;3631;42.152;24.756;2023-07-02T05:29:38;12.30;;;10.70;;
7179;SDS011;3631;42.152;24.756;2023-07-02T05:32:05;19.15;;;9.95;;
7179;SDS011;3631;42.152;24.756;2023-07-02T05:34:33;12.18;;;10.85;;
7179;SDS011;3631;42.152;24.756;2023-07-02T05:36:59;15.05;;;10.43;;
7179;SDS011;3631;42.152;24.756;2023-07-02T05:39:28;14.18;;;10.93;;
7179;SDS011;3631;42.152;24.756;2023-07-02T05:41:56;15.73;;;10.57;;
7179;SDS011;3631;42.152;24.756;2023-07-02T05:44:23;12.73;;;9.93;;
7179;SDS011;3631;42.152;24.756;2023-07-02T05:46:49;11.38;;;8.95;;
7179;SDS011;3631;42.152;24.756;2023-07-02T05:49:16;9.98;;;8.63;;
7179;SDS011;3631;42.152;24.756;2023-07-02T05:51:43;11.25;;;8.98;;
7179;SDS011;3631;42.152;24.756;2023-07-02T05:54:10;10.13;;;9.00;;
7179;SDS011;3631;42.152;24.756;2023-07-02T05:56:39;13.70;;;9.02;;
7179;SDS011;3631;42.152;24.756;2023-07-02T05:59:05;10.20;;;8.68;;
7179;SDS011;3631;42.152;24.756;2023-07-02T06:01:33;10.13;;;8.50;;
7179;SDS011;3631;42.152;24.756;2023-07-02T06:03:59;15.80;;;9.45;;
7179;SDS011;3631;42.152;24.756;2023-07-02T06:06:26;11.25;;;8.57;;
7179;SDS011;3631;42.152;24.756;2023-07-02T06:08:53;13.88;;;9.63;;
7179;SDS011;3631;42.152;24.756;2023-07-02T06:11:20;9.20;;;8.30;;
7179;SDS011;3631;42.152;24.756;2023-07-02T06:13:49;13.55;;;9.15;;
7179;SDS011;3631;42.152;24.756;2023-07-02T06:16:16;10.38;;;9.20;;
7179;SDS011;3631;42.152;24.756;2023-07-02T06:18:42;12.02;;;9.55;;
7179;SDS011;3631;42.152;24.756;2023-07-02T06:21:09;10.02;;;8.40;;
7179;SDS011;3631;42.152;24.756;2023-07-02T06:23:40;10.23;;;9.07;;
7179;SDS011;3631;42.152;24.756;2023-07-02T06:26:07;11.07;;;9.40;;
7179;SDS011;3631;42.152;24.756;2023-07-02T06:28:34;10.23;;;8.20;;
7179;SDS011;3631;42.152;24.756;2023-07-02T06:31:03;9.95;;;8.80;;
7179;SDS011;3631;42.152;24.756;2023-07-02T06:33:29;9.68;;;8.57;;
7179;SDS011;3631;42.152;24.756;2023-07-02T06:35:56;10.40;;;9.20;;
7179;SDS011;3631;42.152;24.756;2023-07-02T06:38:23;11.52;;;8.93;;
7179;SDS011;3631;42.152;24.756;2023-07-02T06:40:50;9.25;;;8.50;;
7179;SDS011;3631;42.152;24.756;2023-07-02T06:43:17;15.30;;;9.13;;
7179;SDS011;3631;42.152;24.756;2023-07-02T06:45:44;12.57;;;8.98;;
7179;SDS011;3631;42.152;24.756;2023-07-02T06:48:13;17.25;;;10.80;;
7179;SDS011;3631;42.152;24.756;2023-07-02T06:50:43;9.07;;;8.18;;
7179;SDS011;3631;42.152;24.756;2023-07-02T06:53:11;10.32;;;8.68;;
7179;SDS011;3631;42.152;24.756;2023-07-02T06:55:38;10.77;;;9.05;;
7179;SDS011;3631;42.152;24.756;2023-07-02T06:58:05;13.15;;;8.45;;
7179;SDS011;3631;42.152;24.756;2023-07-02T07:00:32;15.95;;;9.13;;
7179;SDS011;3631;42.152;24.756;2023-07-02T07:03:00;9.75;;;8.85;;
7179;SDS011;3631;42.152;24.756;2023-07-02T07:05:29;9.32;;;8.48;;
7179;SDS011;3631;42.152;24.756;2023-07-02T07:07:57;8.10;;;7.45;;
7179;SDS011;3631;42.152;24.756;2023-07-02T07:10:26;9.82;;;8.20;;
7179;SDS011;3631;42.152;24.756;2023-07-02T07:12:53;9.77;;;8.98;;
7179;SDS011;3631;42.152;24.756;2023-07-02T07:15:20;9.40;;;8.27;;
7179;SDS011;3631;42.152;24.756;2023-07-02T07:17:47;10.02;;;8.75;;
7179;SDS011;3631;42.152;24.756;2023-07-02T07:20:14;14.38;;;10.02;;
7179;SDS011;3631;42.152;24.756;2023-07-02T07:22:42;9.93;;;8.90;;
7179;SDS011;3631;42.152;24.756;2023-07-02T07:25:09;12.57;;;8.95;;
7179;SDS011;3631;42.152;24.756;2023-07-02T07:27:36;8.93;;;8.13;;
7179;SDS011;3631;42.152;24.756;2023-07-02T07:30:03;10.30;;;9.25;;
7179;SDS011;3631;42.152;24.756;2023-07-02T07:32:31;10.00;;;9.10;;
7179;SDS011;3631;42.152;24.756;2023-07-02T07:34:58;9.00;;;8.20;;
7179;SDS011;3631;42.152;24.756;2023-07-02T07:37:25;9.38;;;8.63;;
7179;SDS011;3631;42.152;24.756;2023-07-02T07:39:53;9.40;;;8.48;;
7179;SDS011;3631;42.152;24.756;2023-07-02T07:42:20;11.30;;;8.63;;
7179;SDS011;3631;42.152;24.756;2023-07-02T07:44:47;12.48;;;8.32;;
7179;SDS011;3631;42.152;24.756;2023-07-02T07:47:14;8.60;;;7.90;;
7179;SDS011;3631;42.152;24.756;2023-07-02T07:49:41;8.38;;;7.68;;
7179;SDS011;3631;42.152;24.756;2023-07-02T07:52:08;8.88;;;7.63;;
7179;SDS011;3631;42.152;24.756;2023-07-02T07:54:35;8.57;;;7.88;;
7179;SDS011;3631;42.152;24.756;2023-07-02T07:57:04;9.45;;;8.00;;
7179;SDS011;3631;42.152;24.756;2023-07-02T07:59:31;7.72;;;7.10;;
7179;SDS011;3631;42.152;24.756;2023-07-02T08:01:58;9.40;;;7.45;;
7179;SDS011;3631;42.152;24.756;2023-07-02T08:04:25;9.18;;;7.43;;
7179;SDS011;3631;42.152;24.756;2023-07-02T08:06:52;8.70;;;7.93;;
7179;SDS011;3631;42.152;24.756;2023-07-02T08:09:20;9.20;;;7.68;;
7179;SDS011;3631;42.152;24.756;2023-07-02T08:11:47;9.98;;;8.13;;
7179;SDS011;3631;42.152;24.756;2023-07-02T08:14:15;8.65;;;7.38;;
7179;SDS011;3631;42.152;24.756;2023-07-02T08:16:43;10.15;;;8.52;;
7179;SDS011;3631;42.152;24.756;2023-07-02T08:19:10;15.20;;;8.63;;
7179;SDS011;3631;42.152;24.756;2023-07-02T08:21:37;11.13;;;8.38;;
7179;SDS011;3631;42.152;24.756;2023-07-02T08:24:04;8.10;;;7.45;;
7179;SDS011;3631;42.152;24.756;2023-07-02T08:26:32;8.90;;;8.00;;
7179;SDS011;3631;42.152;24.756;2023-07-02T08:28:59;7.82;;;7.20;;
7179;SDS011;3631;42.152;24.756;2023-07-02T08:31:27;8.98;;;8.13;;
7179;SDS011;3631;42.152;24.756;2023-07-02T08:33:54;8.30;;;7.57;;
7179;SDS011;3631;42.152;24.756;2023-07-02T08:36:21;11.15;;;8.30;;
7179;SDS011;3631;42.152;24.756;2023-07-02T08:38:48;9.45;;;8.57;;
7179;SDS011;3631;42.152;24.756;2023-07-02T08:41:15;8.05;;;7.38;;
7179;SDS011;3631;42.152;24.756;2023-07-02T08:43:42;12.63;;;11.32;;
7179;SDS011;3631;42.152;24.756;2023-07-02T08:46:10;11.10;;;10.10;;
7179;SDS011;3631;42.152;24.756;2023-07-02T08:48:39;10.00;;;8.20;;
7179;SDS011;3631;42.152;24.756;2023-07-02T08:51:06;15.98;;;10.57;;
7179;SDS011;3631;42.152;24.756;2023-07-02T08:53:33;9.55;;;8.70;;
7179;SDS011;3631;42.152;24.756;2023-07-02T08:56:00;8.15;;;7.45;;
7179;SDS011;3631;42.152;24.756;2023-07-02T08:58:29;8.88;;;7.97;;
7179;SDS011;3631;42.152;24.756;2023-07-02T09:01:06;10.70;;;8.48;;
7179;SDS011;3631;42.152;24.756;2023-07-02T09:03:34;9.23;;;8.43;;
7179;SDS011;3631;42.152;24.756;2023-07-02T09:06:03;9.48;;;8.18;;
7179;SDS011;3631;42.152;24.756;2023-07-02T09:08:31;9.15;;;8.27;;
7179;SDS011;3631;42.152;24.756;2023-07-02T09:11:09;11.95;;;8.35;;
7179;SDS011;3631;42.152;24.756;2023-07-02T09:13:43;9.85;;;8.82;;
7179;SDS011;3631;42.152;24.756;2023-07-02T09:16:20;9.55;;;8.02;;
7179;SDS011;3631;42.152;24.756;2023-07-02T09:18:55;8.75;;;7.85;;
7179;SDS011;3631;42.152;24.756;2023-07-02T09:21:27;9.32;;;8.40;;
7179;SDS011;3631;42.152;24.756;2023-07-02T09:24:11;8.43;;;7.68;;
7179;SDS011;3631;42.152;24.756;2023-07-02T09:26:41;11.80;;;7.68;;
7179;SDS011;3631;42.152;24.756;2023-07-02T09:29:09;8.50;;;7.80;;
7179;SDS011;3631;42.152;24.756;2023-07-02T09:31:42;8.55;;;7.95;;
7179;SDS011;3631;42.152;24.756;2023-07-02T09:34:10;9.48;;;7.93;;
7179;SDS011;3631;42.152;24.756;2023-07-02T09:36:39;7.90;;;7.22;;
7179;SDS011;3631;42.152;24.756;2023-07-02T09:39:07;9.27;;;7.80;;
7179;SDS011;3631;42.152;24.756;2023-07-02T09:41:34;12.55;;;11.38;;
7179;SDS011;3631;42.152;24.756;2023-07-02T09:44:02;21.17;;;18.95;;
7179;SDS011;3631;42.152;24.756;2023-07-02T09:46:29;17.25;;;15.65;;
7179;SDS011;3631;42.152;24.756;2023-07-02T09:48:58;10.38;;;9.48;;
7179;SDS011;3631;42.152;24.756;2023-07-02T09:51:26;8.32;;;7.68;;
7179;SDS011;3631;42.152;24.756;2023-07-02T09:53:55;10.30;;;9.45;;
7179;SDS011;3631;42.152;24.756;2023-07-02T09:56:22;8.70;;;8.00;;
7179;SDS011;3631;42.152;24.756;2023-07-02T09:58:49;8.50;;;7.80;;
7179;SDS011;3631;42.152;24.756;2023-07-02T10:01:16;8.88;;;6.85;;
7179;SDS011;3631;42.152;24.756;2023-07-02T10:03:43;15.82;;;14.30;;
7179;SDS011;3631;42.152;24.756;2023-07-02T10:06:10;8.60;;;7.15;;
7179;SDS011;3631;42.152;24.756;2023-07-02T10:08:37;12.55;;;11.27;;
7179;SDS011;3631;42.152;24.756;2023-07-02T10:11:12;11.30;;;10.18;;
7179;SDS011;3631;42.152;24.756;2023-07-02T10:13:39;9.57;;;8.73;;
7179;SDS011;3631;42.152;24.756;2023-07-02T10:16:06;8.35;;;7.65;;
7179;SDS011;3631;42.152;24.756;2023-07-02T10:18:33;9.27;;;8.43;;
7179;SDS011;3631;42.152;24.756;2023-07-02T10:21:00;10.23;;;9.43;;
7179;SDS011;3631;42.152;24.756;2023-07-02T10:23:39;12.70;;;10.75;;
7179;SDS011;3631;42.152;24.756;2023-07-02T10:26:09;13.48;;;8.68;;
7179;SDS011;3631;42.152;24.756;2023-07-02T10:28:40;9.80;;;8.88;;
7179;SDS011;3631;42.152;24.756;2023-07-02T10:31:17;22.00;;;19.73;;
7179;SDS011;3631;42.152;24.756;2023-07-02T10:33:44;10.95;;;9.85;;
7179;SDS011;3631;42.152;24.756;2023-07-02T10:36:17;11.38;;;10.18;;
7179;SDS011;3631;42.152;24.756;2023-07-02T10:38:46;8.80;;;8.10;;
7179;SDS011;3631;42.152;24.756;2023-07-02T10:41:22;9.77;;;8.65;;
7179;SDS011;3631;42.152;24.756;2023-07-02T10:43:50;10.65;;;9.65;;
7179;SDS011;3631;42.152;24.756;2023-07-02T10:46:20;13.13;;;10.48;;
7179;SDS011;3631;42.152;24.756;2023-07-02T10:48:51;15.10;;;13.48;;
7179;SDS011;3631;42.152;24.756;2023-07-02T10:51:18;14.38;;;13.10;;
7179;SDS011;3631;42.152;24.756;2023-07-02T10:53:46;12.35;;;10.13;;
7179;SDS011;3631;42.152;24.756;2023-07-02T10:56:23;21.35;;;17.83;;
7179;SDS011;3631;42.152;24.756;2023-07-02T10:58:50;25.80;;;21.90;;
7179;SDS011;3631;42.152;24.756;2023-07-02T11:01:21;39.63;;;32.45;;
7179;SDS011;3631;42.152;24.756;2023-07-02T11:03:55;26.77;;;19.08;;
7179;SDS011;3631;42.152;24.756;2023-07-02T11:06:22;18.90;;;10.35;;
7179;SDS011;3631;42.152;24.756;2023-07-02T11:08:49;12.43;;;10.65;;
7179;SDS011;3631;42.152;24.756;2023-07-02T11:11:16;22.48;;;12.38;;
7179;SDS011;3631;42.152;24.756;2023-07-02T11:13:45;22.38;;;13.63;;
7179;SDS011;3631;42.152;24.756;2023-07-02T11:16:20;19.88;;;12.60;;
7179;SDS011;3631;42.152;24.756;2023-07-02T11:18:50;18.73;;;12.07;;
7179;SDS011;3631;42.152;24.756;2023-07-02T11:21:32;15.82;;;12.38;;
7179;SDS011;3631;42.152;24.756;2023-07-02T11:24:02;15.80;;;13.02;;
7179;SDS011;3631;42.152;24.756;2023-07-02T11:26:34;17.60;;;12.40;;
7179;SDS011;3631;42.152;24.756;2023-07-02T11:29:03;17.10;;;11.52;;
7179;SDS011;3631;42.152;24.756;2023-07-02T11:31:30;14.90;;;10.80;;
7179;SDS011;3631;42.152;24.756;2023-07-02T11:33:57;12.00;;;9.48;;
7179;SDS011;3631;42.152;24.756;2023-07-02T11:36:24;15.05;;;10.32;;
7179;SDS011;3631;42.152;24.756;2023-07-02T11:38:51;11.73;;;10.45;;
7179;SDS011;3631;42.152;24.756;2023-07-02T11:41:21;23.58;;;18.30;;
7179;SDS011;3631;42.152;24.756;2023-07-02T11:43:48;14.20;;;12.70;;
7179;SDS011;3631;42.152;24.756;2023-07-02T11:46:16;13.38;;;11.88;;
7179;SDS011;3631;42.152;24.756;2023-07-02T11:48:43;11.60;;;10.45;;
7179;SDS011;3631;42.152;24.756;2023-07-02T11:51:10;22.83;;;18.77;;
7179;SDS011;3631;42.152;24.756;2023-07-02T11:53:37;11.10;;;9.30;;
7179;SDS011;3631;42.152;24.756;2023-07-02T11:56:04;9.98;;;9.02;;
7179;SDS011;3631;42.152;24.756;2023-07-02T11:58:31;10.85;;;9.75;;
7179;SDS011;3631;42.152;24.756;2023-07-02T12:00:58;17.92;;;14.75;;
7179;SDS011;3631;42.152;24.756;2023-07-02T12:03:26;24.77;;;18.13;;
7179;SDS011;3631;42.152;24.756;2023-07-02T12:05:53;35.38;;;24.27;;
7179;SDS011;3631;42.152;24.756;2023-07-02T12:08:20;21.00;;;16.88;;
7179;SDS011;3631;42.152;24.756;2023-07-02T12:10:47;18.55;;;15.85;;
7179;SDS011;3631;42.152;24.756;2023-07-02T12:13:14;15.90;;;12.15;;
7179;SDS011;3631;42.152;24.756;2023-07-02T12:15:41;10.98;;;9.85;;
7179;SDS011;3631;42.152;24.756;2023-07-02T12:18:08;11.23;;;9.75;;
7179;SDS011;3631;42.152;24.756;2023-07-02T12:20:37;11.90;;;10.55;;
7179;SDS011;3631;42.152;24.756;2023-07-02T12:23:04;12.18;;;10.07;;
7179;SDS011;3631;42.152;24.756;2023-07-02T12:25:32;13.80;;;9.23;;
7179;SDS011;3631;42.152;24.756;2023-07-02T12:27:59;14.40;;;9.57;;
7179;SDS011;3631;42.152;24.756;2023-07-02T12:30:25;10.25;;;9.35;;
7179;SDS011;3631;42.152;24.756;2023-07-02T12:32:52;10.40;;;9.30;;
7179;SDS011;3631;42.152;24.756;2023-07-02T12:35:19;12.73;;;9.50;;
7179;SDS011;3631;42.152;24.756;2023-07-02T12:37:49;9.35;;;8.55;;
7179;SDS011;3631;42.152;24.756;2023-07-02T12:40:17;10.23;;;8.98;;
7179;SDS011;3631;42.152;24.756;2023-07-02T12:42:45;10.32;;;9.32;;
7179;SDS011;3631;42.152;24.756;2023-07-02T12:45:12;10.25;;;9.23;;
7179;SDS011;3631;42.152;24.756;2023-07-02T12:47:40;10.93;;;8.65;;
7179;SDS011;3631;42.152;24.756;2023-07-02T12:50:09;9.20;;;7.97;;
7179;SDS011;3631;42.152;24.756;2023-07-02T12:52:36;8.68;;;7.97;;
7179;SDS011;3631;42.152;24.756;2023-07-02T12:55:05;13.60;;;8.60;;
7179;SDS011;3631;42.152;24.756;2023-07-02T12:57:33;14.95;;;10.68;;
7179;SDS011;3631;42.152;24.756;2023-07-02T13:00:01;9.73;;;8.35;;
7179;SDS011;3631;42.152;24.756;2023-07-02T13:02:31;10.35;;;8.80;;
7179;SDS011;3631;42.152;24.756;2023-07-02T13:04:57;10.88;;;8.40;;
7179;SDS011;3631;42.152;24.756;2023-07-02T13:07:24;10.02;;;9.02;;
7179;SDS011;3631;42.152;24.756;2023-07-02T13:09:51;10.82;;;8.93;;
7179;SDS011;3631;42.152;24.756;2023-07-02T13:12:20;10.05;;;9.05;;
7179;SDS011;3631;42.152;24.756;2023-07-02T13:14:47;15.38;;;9.75;;
7179;SDS011;3631;42.152;24.756;2023-07-02T13:17:13;9.68;;;8.68;;
7179;SDS011;3631;42.152;24.756;2023-07-02T13:19:40;9.73;;;8.75;;
7179;SDS011;3631;42.152;24.756;2023-07-02T13:22:07;9.45;;;8.50;;
7179;SDS011;3631;42.152;24.756;2023-07-02T13:24:35;11.77;;;10.70;;
7179;SDS011;3631;42.152;24.756;2023-07-02T13:27:07;13.60;;;10.20;;
7179;SDS011;3631;42.152;24.756;2023-07-02T13:29:40;11.35;;;9.93;;
7179;SDS011;3631;42.152;24.756;2023-07-02T13:32:07;10.70;;;8.88;;
7179;SDS011;3631;42.152;24.756;2023-07-02T13:34:34;10.98;;;9.88;;
7179;SDS011;3631;42.152;24.756;2023-07-02T13:37:01;11.30;;;9.50;;
7179;SDS011;3631;42.152;24.756;2023-07-02T13:39:28;10.85;;;9.75;;
7179;SDS011;3631;42.152;24.756;2023-07-02T13:41:56;12.32;;;9.55;;
7179;SDS011;3631;42.152;24.756;2023-07-02T13:44:23;10.50;;;8.90;;
7179;SDS011;3631;42.152;24.756;2023-07-02T13:46:51;10.48;;;9.35;;
7179;SDS011;3631;42.152;24.756;2023-07-02T13:49:18;14.02;;;9.95;;
7179;SDS011;3631;42.152;24.756;2023-07-02T13:51:46;14.55;;;10.30;;
7179;SDS011;3631;42.152;24.756;2023-07-02T13:54:14;12.48;;;10.30;;
7179;SDS011;3631;42.152;24.756;2023-07-02T13:56:43;11.82;;;10.68;;
7179;SDS011;3631;42.152;24.756;2023-07-02T13:59:12;12.85;;;10.40;;
7179;SDS011;3631;42.152;24.756;2023-07-02T14:01:40;16.20;;;11.25;;
7179;SDS011;3631;42.152;24.756;2023-07-02T14:04:07;12.23;;;9.98;;
7179;SDS011;3631;42.152;24.756;2023-07-02T14:06:34;11.95;;;9.57;;
7179;SDS011;3631;42.152;24.756;2023-07-02T14:09:01;11.05;;;9.40;;
7179;SDS011;3631;42.152;24.756;2023-07-02T14:11:29;11.10;;;10.02;;
7179;SDS011;3631;42.152;24.756;2023-07-02T14:13:56;11.18;;;10.05;;
7179;SDS011;3631;42.152;24.756;2023-07-02T14:16:24;10.80;;;9.73;;
7179;SDS011;3631;42.152;24.756;2023-07-02T14:18:51;13.18;;;10.07;;
7179;SDS011;3631;42.152;24.756;2023-07-02T14:21:18;10.93;;;8.77;;
7179;SDS011;3631;42.152;24.756;2023-07-02T14:23:46;11.27;;;9.98;;
7179;SDS011;3631;42.152;24.756;2023-07-02T14:26:13;10.48;;;9.38;;
7179;SDS011;3631;42.152;24.756;2023-07-02T14:28:40;10.38;;;8.90;;
7179;SDS011;3631;42.152;24.756;2023-07-02T14:33:45;11.32;;;9.23;;
7179;SDS011;3631;42.152;24.756;2023-07-02T14:36:12;10.07;;;9.15;;
7179;SDS011;3631;42.152;24.756;2023-07-02T14:38:39;9.75;;;8.95;;
7179;SDS011;3631;42.152;24.756;2023-07-02T14:41:06;13.48;;;9.48;;
7179;SDS011;3631;42.152;24.756;2023-07-02T14:43:36;9.32;;;8.13;;
7179;SDS011;3631;42.152;24.756;2023-07-02T14:46:03;10.65;;;9.55;;
7179;SDS011;3631;42.152;24.756;2023-07-02T14:48:30;11.32;;;9.23;;
7179;SDS011;3631;42.152;24.756;2023-07-02T14:50:59;8.93;;;8.18;;
7179;SDS011;3631;42.152;24.756;2023-07-02T14:53:28;9.05;;;8.23;;
7179;SDS011;3631;42.152;24.756;2023-07-02T14:55:56;10.95;;;9.73;;
7179;SDS011;3631;42.152;24.756;2023-07-02T14:58:25;10.15;;;9.23;;